createdAt,value
2017-12-24T00:01:42.452Z,76.30
2017-12-24T00:04:10.426Z,76.20
2017-12-24T00:06:37.863Z,76.00
2017-12-24T00:09:05.311Z,76.30
2017-12-24T00:11:32.779Z,76.10
2017-12-24T00:14:00.217Z,76.20
2017-12-24T00:16:27.672Z,76.00
2017-12-24T00:18:55.116Z,75.90
2017-12-24T00:21:22.962Z,76.10
2017-12-24T00:23:50.866Z,76.10
2017-12-24T00:26:18.309Z,75.70
2017-12-24T00:28:45.741Z,75.90
2017-12-24T00:31:13.167Z,76.00
2017-12-24T00:33:40.594Z,75.90
2017-12-24T00:36:09.059Z,75.80
2017-12-24T00:38:36.528Z,75.80
2017-12-24T00:41:03.966Z,75.70
2017-12-24T00:43:31.427Z,75.60
2017-12-24T00:45:58.886Z,75.70
2017-12-24T00:48:26.324Z,75.70
2017-12-24T00:50:53.741Z,75.70
2017-12-24T00:53:21.194Z,75.90
2017-12-24T00:55:48.615Z,76.00
2017-12-24T00:58:16.063Z,75.90
2017-12-24T01:00:43.915Z,76.00
2017-12-24T01:03:11.925Z,76.00
2017-12-24T01:05:39.377Z,76.10
2017-12-24T01:08:06.827Z,75.90
2017-12-24T01:10:34.659Z,75.80
2017-12-24T01:13:02.076Z,75.90
2017-12-24T01:15:29.506Z,76.00
2017-12-24T01:17:57.360Z,76.00
2017-12-24T01:20:24.799Z,76.10
2017-12-24T01:22:52.268Z,76.00
2017-12-24T01:25:19.707Z,76.00
2017-12-24T01:27:47.179Z,75.90
2017-12-24T01:30:14.639Z,76.00
2017-12-24T01:32:42.076Z,76.00
2017-12-24T01:35:09.514Z,75.90
2017-12-24T01:37:37.347Z,76.10
2017-12-24T01:40:04.802Z,76.10
2017-12-24T01:42:32.247Z,76.00
2017-12-24T01:44:59.692Z,75.90
2017-12-24T02:00:49.526Z,76.20
2017-12-24T02:03:17.017Z,76.10
2017-12-24T02:05:44.473Z,76.30
2017-12-24T02:08:11.900Z,76.30
2017-12-24T02:10:39.349Z,76.50
2017-12-24T02:13:06.820Z,76.40
2017-12-24T02:15:34.278Z,76.20
2017-12-24T02:18:01.717Z,76.30
2017-12-24T02:20:29.148Z,76.20
2017-12-24T02:22:56.608Z,76.20
2017-12-24T02:25:24.039Z,76.40
2017-12-24T02:27:51.486Z,76.30
2017-12-24T02:30:18.934Z,76.40
2017-12-24T02:32:46.364Z,76.40
2017-12-24T02:35:13.894Z,76.20
2017-12-24T02:37:41.340Z,76.40
2017-12-24T02:40:08.771Z,76.50
2017-12-24T02:42:36.221Z,76.50
2017-12-24T02:45:04.084Z,76.20
2017-12-24T02:47:32.013Z,76.30
2017-12-24T02:49:59.475Z,76.30
2017-12-24T02:52:26.911Z,76.20
2017-12-24T02:54:54.384Z,76.10
2017-12-24T02:57:21.857Z,75.90
2017-12-24T02:59:49.302Z,76.00
2017-12-24T03:02:16.780Z,76.00
2017-12-24T03:04:44.236Z,75.90
2017-12-24T03:07:11.670Z,75.90
2017-12-24T03:09:39.090Z,76.00
2017-12-24T03:12:06.524Z,75.70
2017-12-24T03:14:34.198Z,75.70
2017-12-24T03:17:01.651Z,75.60
2017-12-24T03:19:29.100Z,75.60
2017-12-24T03:21:56.555Z,75.50
2017-12-24T03:24:24.041Z,75.80
2017-12-24T03:26:51.496Z,75.60
2017-12-24T03:29:18.924Z,75.70
2017-12-24T03:31:46.387Z,75.70
2017-12-24T03:34:13.824Z,75.60
2017-12-24T03:36:41.289Z,75.80
2017-12-24T03:39:09.210Z,76.10
2017-12-24T03:41:36.637Z,76.10
2017-12-24T03:44:04.653Z,75.90
2017-12-24T03:46:32.120Z,75.90
2017-12-24T03:48:59.556Z,75.80
2017-12-24T03:51:26.996Z,75.70
2017-12-24T03:53:54.511Z,75.80
2017-12-24T03:56:22.064Z,75.90
2017-12-24T03:58:49.532Z,76.10
2017-12-24T04:01:16.968Z,76.00
2017-12-24T04:03:44.404Z,76.00
2017-12-24T04:06:12.219Z,76.70
2017-12-24T04:08:39.655Z,76.70
2017-12-24T04:11:07.124Z,76.50
2017-12-24T04:13:34.560Z,76.30
2017-12-24T04:18:37.026Z,76.20
2017-12-24T04:21:04.440Z,76.20
2017-12-24T04:23:31.874Z,76.30
2017-12-24T04:25:59.700Z,76.20
2017-12-24T04:28:27.141Z,76.20
2017-12-24T04:30:54.616Z,76.50
2017-12-24T04:33:22.077Z,76.40
2017-12-24T04:35:49.499Z,76.50
2017-12-24T04:38:16.935Z,76.40
2017-12-24T04:40:44.392Z,76.70
2017-12-24T04:43:11.932Z,76.60
2017-12-24T04:45:39.608Z,76.60
2017-12-24T04:48:07.163Z,76.90
2017-12-24T04:50:34.599Z,76.70
2017-12-24T04:53:02.056Z,76.60
2017-12-24T04:55:29.530Z,76.60
2017-12-24T04:57:56.963Z,76.60
2017-12-24T05:00:24.397Z,76.50
2017-12-24T05:02:51.820Z,76.50
2017-12-24T05:05:19.255Z,76.20
2017-12-24T05:07:46.680Z,76.20
2017-12-24T05:10:14.115Z,76.40
2017-12-24T05:12:41.569Z,76.40
2017-12-24T05:15:08.993Z,76.20
2017-12-24T05:17:36.807Z,76.40
2017-12-24T05:20:04.259Z,76.40
2017-12-24T05:22:31.712Z,76.30
2017-12-24T05:24:59.198Z,76.40
2017-12-24T05:27:26.600Z,76.40
2017-12-24T05:29:54.437Z,76.40
2017-12-24T05:32:22.215Z,76.40
2017-12-24T05:34:49.650Z,76.30
2017-12-24T05:37:17.119Z,76.50
2017-12-24T05:39:44.556Z,76.40
2017-12-24T05:42:12.022Z,76.30
2017-12-24T05:44:39.436Z,76.50
2017-12-24T05:47:07.247Z,76.80
2017-12-24T05:49:34.720Z,76.80
2017-12-24T05:52:02.165Z,76.70
2017-12-24T05:54:29.616Z,76.80
2017-12-24T05:56:57.123Z,76.70
2017-12-24T05:59:24.573Z,76.60
2017-12-24T06:01:52.002Z,76.60
2017-12-24T06:04:19.438Z,76.50
2017-12-24T06:06:46.945Z,76.70
2017-12-24T06:09:14.367Z,76.40
2017-12-24T06:11:42.319Z,76.70
2017-12-24T06:14:09.779Z,76.70
2017-12-24T06:16:37.227Z,76.60
2017-12-24T06:19:04.673Z,76.60
2017-12-24T06:21:33.016Z,76.60
2017-12-24T06:24:00.845Z,76.80
2017-12-24T06:26:28.294Z,76.80
2017-12-24T06:28:55.731Z,76.90
2017-12-24T06:31:23.180Z,76.80
2017-12-24T06:33:50.604Z,76.80
2017-12-24T06:36:18.050Z,76.50
2017-12-24T06:38:45.490Z,76.60
2017-12-24T06:41:12.951Z,76.80
2017-12-24T06:43:40.380Z,76.80
2017-12-24T06:46:07.877Z,76.50
2017-12-24T06:48:35.835Z,76.60
2017-12-24T06:51:03.279Z,76.50
2017-12-24T06:53:30.704Z,76.60
2017-12-24T06:55:58.148Z,76.60
2017-12-24T06:58:25.600Z,76.60
2017-12-24T07:00:53.024Z,76.60
2017-12-24T07:03:20.447Z,76.40
2017-12-24T07:05:47.880Z,76.50
2017-12-24T07:08:15.325Z,76.30
2017-12-24T07:10:42.796Z,76.40
2017-12-24T07:13:10.226Z,76.40
2017-12-24T07:15:37.681Z,76.60
2017-12-24T07:18:05.515Z,76.40
2017-12-24T07:20:32.954Z,76.40
2017-12-24T07:23:01.458Z,76.30
2017-12-24T07:25:28.954Z,76.40
2017-12-24T07:27:56.860Z,76.40
2017-12-24T07:30:24.302Z,76.40
2017-12-24T07:32:52.113Z,76.20
2017-12-24T07:35:19.992Z,76.20
2017-12-24T07:37:47.421Z,76.50
2017-12-24T07:40:14.863Z,76.60
2017-12-24T07:42:42.776Z,76.80
2017-12-24T07:45:10.212Z,76.70
2017-12-24T07:47:37.686Z,76.70
2017-12-24T07:50:05.155Z,76.40
2017-12-24T07:52:32.567Z,76.50
2017-12-24T07:55:00.403Z,76.50
2017-12-24T07:57:27.845Z,76.50
2017-12-24T07:59:55.290Z,76.30
2017-12-24T08:02:22.715Z,76.40
2017-12-24T08:04:50.151Z,76.30
2017-12-24T08:07:17.686Z,76.50
2017-12-24T08:09:45.153Z,76.50
2017-12-24T08:12:12.599Z,76.30
2017-12-24T08:14:40.183Z,76.40
2017-12-24T08:17:07.610Z,76.30
2017-12-24T08:19:35.094Z,76.20
2017-12-24T08:22:02.557Z,76.10
2017-12-24T08:24:29.979Z,76.00
2017-12-24T08:26:57.845Z,76.20
2017-12-24T08:29:25.282Z,76.20
2017-12-24T08:31:52.727Z,76.30
2017-12-24T08:34:20.176Z,76.30
2017-12-24T08:36:47.654Z,76.50
2017-12-24T08:39:15.098Z,76.20
2017-12-24T08:41:42.551Z,76.30
2017-12-24T08:44:09.999Z,76.20
2017-12-24T08:46:37.827Z,75.90
2017-12-24T08:49:05.262Z,75.90
2017-12-24T08:51:32.700Z,75.90
2017-12-24T08:54:00.120Z,75.70
2017-12-24T08:56:27.575Z,75.70
2017-12-24T08:58:54.989Z,75.70
2017-12-24T09:01:22.463Z,75.90
2017-12-24T09:03:49.883Z,75.90
2017-12-24T09:06:17.699Z,75.70
2017-12-24T09:08:45.148Z,75.60
2017-12-24T09:11:12.639Z,75.50
2017-12-24T09:13:40.076Z,75.60
2017-12-24T09:16:08.102Z,75.80
2017-12-24T09:18:35.544Z,75.50
2017-12-24T09:21:02.977Z,75.30
2017-12-24T09:23:30.397Z,75.40
2017-12-24T09:25:58.258Z,75.50
2017-12-24T09:28:25.693Z,75.50
2017-12-24T09:30:53.122Z,75.50
2017-12-24T09:33:20.586Z,75.40
2017-12-24T09:35:48.189Z,75.30
2017-12-24T09:38:15.599Z,75.40
2017-12-24T09:40:43.102Z,75.40
2017-12-24T09:43:10.555Z,75.00
2017-12-24T09:45:37.996Z,75.20
2017-12-24T09:48:05.425Z,75.30
2017-12-24T09:50:32.898Z,75.40
2017-12-24T09:53:00.343Z,75.10
2017-12-24T09:55:28.277Z,74.80
2017-12-24T09:57:56.663Z,74.70
2017-12-24T10:00:24.102Z,74.80
2017-12-24T10:02:51.547Z,74.90
2017-12-24T10:05:19.037Z,74.80
2017-12-24T10:07:46.499Z,74.70
2017-12-24T10:10:13.971Z,74.80
2017-12-24T10:12:41.434Z,75.10
2017-12-24T10:15:08.855Z,74.50
2017-12-24T10:17:36.285Z,74.60
2017-12-24T10:20:03.841Z,74.60
2017-12-24T10:22:31.344Z,74.30
2017-12-24T10:24:59.184Z,74.50
2017-12-24T10:27:26.605Z,74.60
2017-12-24T10:29:54.043Z,74.50
2017-12-24T10:32:21.480Z,74.20
2017-12-24T10:34:49.331Z,74.10
2017-12-24T10:37:16.798Z,74.10
2017-12-24T10:39:44.216Z,74.10
2017-12-24T10:42:11.684Z,74.10
2017-12-24T10:44:39.151Z,73.90
2017-12-24T10:47:06.615Z,74.60
2017-12-24T10:49:34.065Z,74.00
2017-12-24T10:52:01.816Z,74.10
2017-12-24T10:54:29.280Z,74.20
2017-12-24T10:56:56.726Z,74.00
2017-12-24T10:59:24.543Z,74.20
2017-12-24T11:01:51.987Z,74.20
2017-12-24T11:04:19.460Z,74.10
2017-12-24T11:06:46.909Z,74.10
2017-12-24T11:09:14.354Z,74.10
2017-12-24T11:11:41.788Z,74.20
2017-12-24T11:14:09.603Z,74.00
2017-12-24T11:16:37.044Z,74.00
2017-12-24T11:19:04.547Z,73.90
2017-12-24T11:21:32.106Z,74.00
2017-12-24T11:23:59.560Z,73.90
2017-12-24T11:26:27.018Z,73.70
2017-12-24T11:28:54.468Z,73.90
2017-12-24T11:31:21.952Z,74.00
2017-12-24T11:33:49.392Z,73.30
2017-12-24T11:36:16.846Z,73.70
2017-12-24T11:38:44.291Z,73.50
2017-12-24T11:41:12.118Z,74.00
2017-12-24T11:43:39.560Z,74.00
2017-12-24T11:46:06.992Z,73.80
2017-12-24T11:48:34.491Z,73.60
2017-12-24T11:51:01.933Z,73.90
2017-12-24T11:53:29.367Z,73.80
2017-12-24T11:55:56.897Z,74.20
2017-12-24T11:58:24.331Z,73.70
2017-12-24T12:00:51.780Z,73.70
2017-12-24T12:03:19.267Z,73.70
2017-12-24T12:05:46.710Z,73.60
2017-12-24T12:08:14.171Z,73.50
2017-12-24T12:10:41.646Z,73.90
2017-12-24T12:13:09.101Z,73.60
2017-12-24T12:15:36.525Z,73.70
2017-12-24T12:18:03.976Z,74.20
2017-12-24T12:20:31.414Z,73.60
2017-12-24T12:22:58.849Z,73.90
2017-12-24T12:25:26.295Z,73.70
2017-12-24T12:27:53.757Z,73.50
2017-12-24T12:30:21.203Z,73.50
2017-12-24T12:32:48.628Z,73.30
2017-12-24T12:35:16.104Z,73.50
2017-12-24T12:37:43.916Z,73.50
2017-12-24T12:40:11.356Z,73.50
2017-12-24T12:42:39.889Z,73.60
2017-12-24T12:45:07.433Z,73.20
2017-12-24T12:47:34.905Z,73.00
2017-12-24T12:50:02.344Z,72.90
2017-12-24T12:52:29.806Z,72.70
2017-12-24T12:54:57.223Z,72.80
2017-12-24T12:57:25.069Z,73.10
2017-12-24T12:59:52.816Z,73.10
2017-12-24T13:02:20.251Z,73.10
2017-12-24T13:04:47.691Z,72.90
2017-12-24T13:07:15.634Z,73.20
2017-12-24T13:09:43.184Z,73.20
2017-12-24T13:12:10.676Z,73.00
2017-12-24T13:14:38.088Z,73.00
2017-12-24T13:17:05.547Z,73.20
2017-12-24T13:19:33.006Z,73.40
2017-12-24T13:22:01.179Z,73.30
2017-12-24T13:24:29.075Z,73.10
2017-12-24T13:26:56.534Z,73.10
2017-12-24T13:29:24.032Z,73.40
2017-12-24T13:31:51.478Z,73.60
2017-12-24T13:34:19.036Z,73.40
2017-12-24T13:36:46.600Z,73.40
2017-12-24T13:39:14.139Z,73.50
2017-12-24T13:41:41.558Z,73.60
2017-12-24T13:44:09.015Z,74.10
2017-12-24T13:46:36.467Z,74.20
2017-12-24T13:49:04.041Z,73.50
2017-12-24T13:51:31.499Z,73.50
2017-12-24T13:53:58.928Z,73.50
2017-12-24T13:56:26.389Z,73.40
2017-12-24T13:58:53.890Z,73.40
2017-12-24T14:01:21.352Z,73.60
2017-12-24T14:03:49.708Z,73.50
2017-12-24T14:06:17.168Z,73.50
2017-12-24T14:08:44.628Z,73.40
2017-12-24T14:11:12.172Z,73.50
2017-12-24T14:13:39.632Z,73.70
2017-12-24T14:16:07.065Z,73.00
2017-12-24T14:18:34.925Z,73.50
2017-12-24T14:21:02.443Z,73.50
2017-12-24T14:23:29.900Z,73.80
2017-12-24T14:25:57.342Z,73.80
2017-12-24T14:28:24.765Z,74.00
2017-12-24T14:30:52.684Z,73.90
2017-12-24T14:33:20.206Z,73.90
2017-12-24T14:35:47.663Z,74.20
2017-12-24T14:38:15.575Z,74.10
2017-12-24T14:40:43.012Z,74.10
2017-12-24T14:43:10.514Z,74.30
2017-12-24T14:45:38.011Z,74.60
2017-12-24T14:48:05.441Z,74.50
2017-12-24T14:50:32.894Z,74.70
2017-12-24T14:53:00.332Z,74.90
2017-12-24T14:55:27.814Z,75.10
2017-12-24T14:57:55.292Z,75.00
2017-12-24T15:00:22.805Z,75.10
2017-12-24T15:02:50.637Z,75.30
2017-12-24T15:05:18.081Z,75.30
2017-12-24T15:07:45.543Z,75.40
2017-12-24T15:10:13.010Z,75.50
2017-12-24T15:12:40.992Z,75.40
2017-12-24T15:15:08.424Z,75.50
2017-12-24T15:17:35.845Z,75.60
2017-12-24T15:20:03.695Z,75.20
2017-12-24T15:22:31.129Z,75.20
2017-12-24T15:24:58.566Z,75.10
2017-12-24T15:27:26.064Z,75.10
2017-12-24T15:29:53.483Z,75.40
2017-12-24T15:32:20.916Z,75.40
2017-12-24T15:34:48.742Z,75.50
2017-12-24T15:37:16.201Z,75.50
2017-12-24T15:39:43.655Z,75.60
2017-12-24T15:42:11.101Z,75.50
2017-12-24T15:44:38.597Z,75.50
2017-12-24T15:47:06.048Z,75.50
2017-12-24T15:49:33.472Z,75.60
2017-12-24T15:52:01.321Z,75.50
2017-12-24T15:54:28.780Z,75.50
2017-12-24T15:56:56.336Z,75.60
2017-12-24T15:59:23.767Z,75.60
2017-12-24T16:01:51.203Z,75.60
2017-12-24T16:04:19.014Z,75.60
2017-12-24T16:06:46.491Z,75.60
2017-12-24T16:09:13.915Z,75.60
2017-12-24T16:11:41.373Z,75.60
2017-12-24T16:14:08.810Z,75.30
2017-12-24T16:16:36.653Z,75.40
2017-12-24T16:19:04.423Z,75.40
2017-12-24T16:21:31.859Z,75.40
2017-12-24T16:23:59.320Z,75.60
2017-12-24T16:26:26.756Z,75.70
2017-12-24T16:28:54.185Z,75.60
2017-12-24T16:31:22.013Z,75.50
2017-12-24T16:33:49.461Z,75.50
2017-12-24T16:36:16.909Z,75.60
2017-12-24T16:38:44.373Z,75.60
2017-12-24T16:41:11.840Z,75.60
2017-12-24T16:43:39.264Z,75.50
2017-12-24T16:46:06.719Z,75.50
2017-12-24T16:48:34.660Z,75.70
2017-12-24T16:51:02.120Z,75.70
2017-12-24T16:53:29.569Z,75.80
2017-12-24T16:55:57.056Z,75.70
2017-12-24T16:58:24.537Z,75.60
2017-12-24T17:00:51.964Z,75.70
2017-12-24T17:03:19.436Z,75.90
2017-12-24T17:05:46.878Z,75.90
2017-12-24T17:08:14.327Z,75.90
2017-12-24T17:10:41.754Z,75.70
2017-12-24T17:13:09.584Z,75.70
2017-12-24T17:15:37.038Z,75.50
2017-12-24T17:18:04.495Z,75.70
2017-12-24T17:20:31.953Z,75.50
2017-12-24T17:22:59.428Z,75.60
2017-12-24T17:25:26.895Z,75.60
2017-12-24T17:27:54.349Z,75.70
2017-12-24T17:30:21.772Z,75.80
2017-12-24T17:32:49.226Z,75.70
2017-12-24T17:35:17.070Z,76.10
2017-12-24T17:37:44.504Z,76.10
2017-12-24T17:40:11.951Z,76.30
2017-12-24T17:42:39.384Z,76.40
2017-12-24T17:45:07.236Z,76.40
2017-12-24T17:47:35.183Z,76.30
2017-12-24T17:50:02.616Z,76.30
2017-12-24T17:52:30.064Z,76.50
2017-12-24T17:54:57.563Z,76.50
2017-12-24T17:57:25.035Z,76.60
2017-12-24T17:59:52.486Z,76.50
2017-12-24T18:02:19.934Z,76.50
2017-12-24T18:04:47.386Z,76.40
2017-12-24T18:07:14.832Z,76.40
2017-12-24T18:09:42.264Z,76.50
2017-12-24T18:12:11.058Z,76.30
2017-12-24T18:14:38.892Z,76.40
2017-12-24T18:17:06.329Z,76.40
2017-12-24T18:19:33.821Z,76.30
2017-12-24T18:22:01.268Z,76.20
2017-12-24T18:24:28.727Z,76.40
2017-12-24T18:26:56.136Z,76.30
2017-12-24T18:29:23.617Z,76.10
2017-12-24T18:31:51.025Z,76.10
2017-12-24T18:34:18.480Z,75.80
2017-12-24T18:36:45.912Z,75.80
2017-12-24T18:39:13.411Z,75.80
2017-12-24T18:41:40.861Z,75.70
2017-12-24T18:44:08.287Z,75.80
2017-12-24T18:46:36.906Z,75.60
2017-12-24T18:49:04.375Z,75.60
2017-12-24T18:51:31.823Z,75.60
2017-12-24T18:53:59.327Z,75.80
2017-12-24T18:56:26.761Z,75.60
2017-12-24T18:58:54.216Z,75.30
2017-12-24T19:01:21.690Z,75.50
2017-12-24T19:03:49.130Z,75.50
2017-12-24T19:06:16.565Z,75.60
2017-12-24T19:08:43.995Z,75.60
2017-12-24T19:11:11.468Z,75.60
2017-12-24T19:13:38.909Z,75.70
2017-12-24T19:16:06.387Z,75.60
2017-12-24T19:18:33.841Z,76.10
2017-12-24T19:21:02.117Z,75.90
2017-12-24T19:23:29.573Z,75.80
2017-12-24T19:25:57.007Z,75.80
2017-12-24T19:28:24.437Z,75.80
2017-12-24T19:30:51.883Z,75.80
2017-12-24T19:33:19.717Z,75.60
2017-12-24T19:35:47.169Z,75.60
2017-12-24T19:38:14.661Z,75.60
2017-12-24T19:40:42.101Z,75.70
2017-12-24T19:43:09.548Z,75.60
2017-12-24T19:45:36.999Z,75.70
2017-12-24T19:48:04.470Z,75.90
2017-12-24T19:50:31.874Z,76.20
2017-12-24T19:52:59.311Z,76.40
2017-12-24T19:55:26.802Z,76.50
2017-12-24T19:57:54.240Z,76.50
2017-12-24T20:00:21.675Z,76.40
2017-12-24T20:02:49.150Z,76.50
2017-12-24T20:05:16.593Z,76.50
2017-12-24T20:07:44.083Z,76.60
2017-12-24T20:10:11.531Z,76.50
2017-12-24T20:12:38.948Z,76.60
2017-12-24T20:15:06.807Z,76.50
2017-12-24T20:17:34.234Z,76.40
2017-12-24T20:20:01.693Z,76.50
2017-12-24T20:22:29.146Z,76.60
2017-12-24T20:24:56.580Z,76.50
2017-12-24T20:27:24.035Z,76.50
2017-12-24T20:29:51.486Z,76.40
2017-12-24T20:32:18.940Z,76.30
2017-12-24T20:34:46.766Z,76.30
2017-12-24T20:37:14.228Z,76.30
2017-12-24T20:39:41.689Z,76.40
2017-12-24T20:42:09.134Z,76.30
2017-12-24T20:44:36.631Z,76.20
2017-12-24T20:47:04.061Z,76.30
2017-12-24T20:49:31.484Z,76.40
2017-12-24T20:51:59.329Z,76.20
2017-12-24T20:54:26.795Z,76.20
2017-12-24T20:56:54.216Z,76.20
2017-12-24T20:59:21.640Z,76.20
2017-12-24T21:01:49.471Z,76.00
2017-12-24T21:04:16.918Z,76.10
2017-12-24T21:06:44.374Z,76.20
2017-12-24T21:09:11.843Z,76.30
2017-12-24T21:11:39.272Z,76.30
2017-12-24T21:14:07.104Z,76.10
2017-12-24T21:16:34.640Z,76.00
2017-12-24T21:19:02.059Z,76.10
2017-12-24T21:21:29.549Z,76.30
2017-12-24T21:23:57.024Z,76.20
2017-12-24T21:26:24.496Z,76.10
2017-12-24T21:28:51.984Z,76.20
2017-12-24T21:31:19.389Z,76.50
2017-12-24T21:33:46.814Z,76.50
2017-12-24T21:36:14.752Z,76.50
2017-12-24T21:38:42.200Z,76.60
2017-12-24T21:41:09.663Z,76.40
2017-12-24T21:43:37.084Z,76.50
2017-12-24T21:46:05.314Z,76.20
2017-12-24T21:48:32.734Z,76.20
2017-12-24T21:51:00.166Z,76.10
2017-12-24T21:53:27.602Z,76.10
2017-12-24T21:55:55.012Z,75.90
2017-12-24T21:58:22.499Z,75.70
2017-12-24T22:00:49.918Z,76.00
2017-12-24T22:03:18.131Z,76.00
2017-12-24T22:05:45.621Z,76.00
2017-12-24T22:08:13.083Z,75.80
2017-12-24T22:10:40.506Z,75.70
2017-12-24T22:13:07.930Z,75.40
2017-12-24T22:15:35.373Z,75.40
2017-12-24T22:18:02.830Z,75.20
2017-12-24T22:20:30.258Z,75.20
2017-12-24T22:22:57.698Z,75.60
2017-12-24T22:25:25.595Z,75.40
2017-12-24T22:27:53.022Z,75.40
2017-12-24T22:30:20.863Z,75.30
2017-12-24T22:32:48.308Z,75.30
2017-12-24T22:35:15.722Z,74.90
2017-12-24T22:37:43.546Z,74.90
2017-12-24T22:40:10.980Z,74.90
2017-12-24T22:42:38.476Z,74.90
2017-12-24T22:45:05.945Z,74.70
2017-12-24T22:47:33.372Z,74.60
2017-12-24T22:50:00.829Z,74.40
2017-12-24T22:52:28.286Z,74.20
2017-12-24T22:54:55.722Z,74.30
2017-12-24T22:57:23.547Z,74.30
2017-12-24T22:59:50.974Z,74.30
2017-12-24T23:02:18.798Z,74.50
2017-12-24T23:04:46.220Z,74.50
2017-12-24T23:07:13.680Z,74.40
2017-12-24T23:09:41.131Z,74.20
2017-12-24T23:12:08.599Z,74.30
2017-12-24T23:14:36.027Z,74.60
2017-12-24T23:17:03.847Z,74.60
2017-12-24T23:19:31.970Z,74.60
2017-12-24T23:21:59.876Z,74.60
2017-12-24T23:24:27.302Z,74.60
2017-12-24T23:26:55.115Z,74.80
2017-12-24T23:29:22.539Z,74.80
2017-12-24T23:31:50.458Z,75.00
2017-12-24T23:34:17.871Z,74.90
2017-12-24T23:36:45.777Z,75.20
2017-12-24T23:39:13.254Z,75.20
2017-12-24T23:41:40.687Z,75.20
2017-12-24T23:44:08.115Z,75.30
2017-12-24T23:46:36.667Z,75.40
2017-12-24T23:49:04.084Z,75.30
2017-12-24T23:51:31.924Z,75.60
2017-12-24T23:53:59.356Z,75.60
2017-12-24T23:56:26.790Z,75.50
2017-12-24T23:58:54.220Z,75.30
